Norfolk, VA

4:45 PM EDT on May 22, 2015 (GMT -0400)
Moores Bridges WTP | | Change Station
CLOSE
Current Station
Personal Weather Station
Location: Norfolk, VA
Elevation: 9 ft
Nearby Weather Stations

Elev 9 ft 36.87 °N, 76.20 °W | Updated 14 minutes ago

Clear
Clear
72.0 °F
Feels Like 77 °F
N
4.0
Wind Variable Wind from North
Gusts 10.0 mph

Today
High -- | Low -- °F
--% Chance of Precip.
Yesterday
High -- | Low -- °F
Precip. -- in
5:52 AM 8:11 PM
Waxing Crescent, 24% visible
Pressure 30.15 in
Visibility 10.0 miles
Clouds Clear
Heat Index 77 °F
Dew Point 48 °F
Humidity 42%
Rainfall 0.00 in
Snow Depth Not available.
UV 7 out of 12
Pollen 8.10 out of 12
Air Quality Not available.
Flu Activity Sporadic
METAR KORF 221951Z AUTO VRB04KT 10SM CLR 23/04 A3015 RMK AO2 SLP209 T02280044 TSNO

More Conditions Fewer Conditions

Pressure 30.15 in
Visibility 10.0 miles
Clouds Clear
Heat Index 77 °F
Dew Point 48 °F
Humidity 42%
Rainfall 0.00 in
Snow Depth Not available.
UV 7 out of 12
Pollen 8.10 out of 12
Air Quality Not available.
Flu Activity Sporadic
METAR KORF 221951Z AUTO VRB04KT 10SM CLR 23/04 A3015 RMK AO2 SLP209 T02280044 TSNO

More Conditions Fewer Conditions

10-Day Weather Forecast

Almanac

Astronomy

May. 22, 2015 Rise Set
Actual Time
Civil Twilight
Nautical Twilight
Astronomical Twilight
Moon
Length of Visible Light
Length of Day
Tomorrow will be .
, % of the Moon is Illuminated

Today's Extremes

State Highs State Lows

Community

WunderPhotos

Upload Photos

1,823,295 photos uploaded!

WunderBlogs® & News

Nearby

Air Quality

  Air Quality AQ Index Pollutant
Not available.

Snow Depth

Station Depth Elevation

Earthquake Activity

City Distance Mag. Time & Date
Minimum magnitude displayed is 2.5.

Coastal Water Temperatures

Place Temperature

Stations

Nearby Weather Stations

Station Location Temp. Windchill Dew Point Humidity Wind Precip. Elev Updated Type